Deodar 111 — ZMIH — position and weather

sailwx.info

Track history (hours):
 
Tides and Currents Weather Stations Pressure Air Temp Water Temp Dewpoint Dewpoint Depression Visibility Wind Speed Wind Dir Waves Ship Positions

Deodar 111

Last reported at 2018-May-27 10:00 UTC. Time now 2018-May-27 10:01 UTC.
Position S 36°51' E 174°47'.

Length 18 m.

Type: Law enforcement. MMSI: 512000369.

Date/timePositionNaut miles runAvg speedWind from/ knotsBaromVisibWave heightAir tempDewpointWater temp
2018-May-27 10:00S 36°51' E 174°47'0 0.0
2018-May-27 09:29S 36°51' E 174°47'0 0.0
2018-May-27 08:55S 36°51' E 174°47'0 0.0
2018-May-27 08:30S 36°51' E 174°47'0 0.0
2018-May-27 08:00S 36°51' E 174°47'0 0.0
2018-May-27 07:29S 36°51' E 174°47'0 0.0
2018-May-27 06:59S 36°51' E 174°47'0 0.1
2018-May-27 06:27S 36°51' E 174°47'0 0.1
2018-May-27 06:00S 36°51' E 174°47'0 0.1
2018-May-27 03:08S 36°51' E 174°47'1 4.5
2018-May-27 02:59S 36°50' E 174°47'1 0.8
2018-May-27 01:32S 36°50' E 174°46'0 9.4
2018-May-27 01:30S 36°50' E 174°46'1 2.1
2018-May-27 01:00S 36°51' E 174°47'0 0.0
2018-May-27 00:28S 36°51' E 174°47'0 0.0
2018-May-26 23:59S 36°51' E 174°47'1 0.6
2018-May-26 21:39S 36°50' E 174°49'0 1.8
2018-May-26 21:29S 36°50' E 174°48'2 4.0
2018-May-26 20:56S 36°50' E 174°46'2 3.2
2018-May-26 20:26S 36°51' E 174°47'0 0.0
2018-May-26 19:59S 36°51' E 174°47'0 0.0
2018-May-26 19:28S 36°51' E 174°47'0 0.1
2018-May-26 19:00S 36°51' E 174°47'0 0.1
2018-May-26 18:30S 36°51' E 174°47'0 0.1
2018-May-26 17:59S 36°51' E 174°47'0 0.1
2018-May-26 17:30S 36°51' E 174°47'0 0.0
2018-May-26 17:01S 36°51' E 174°47'0 0.0
2018-May-26 16:28S 36°51' E 174°47'0 0.0
2018-May-26 15:59S 36°51' E 174°47'0 0.1
2018-May-26 15:30S 36°51' E 174°47'0 0.1
2018-May-26 15:00S 36°51' E 174°47'0 0.0
2018-May-26 14:29S 36°51' E 174°47'0 0.1
2018-May-26 14:00S 36°51' E 174°47'0 0.1
2018-May-26 13:30S 36°51' E 174°47'0 0.0
2018-May-26 13:00S 36°51' E 174°47'0 0.0
2018-May-26 12:29S 36°51' E 174°47'0 0.0
2018-May-26 11:58S 36°51' E 174°47'0 0.0
2018-May-26 11:30S 36°51' E 174°47'0 0.0
2018-May-26 11:00S 36°51' E 174°47'0 0.0
2018-May-26 10:25S 36°51' E 174°47'0 0.0
2018-May-26 09:58S 36°51' E 174°47'0 0.0
2018-May-26 09:29S 36°51' E 174°47'0 0.0
2018-May-26 08:59S 36°51' E 174°47'0 0.0
2018-May-26 08:30S 36°51' E 174°47'0 0.0
2018-May-26 08:00S 36°51' E 174°47'0 0.0
2018-May-26 07:30S 36°51' E 174°47'0 0.0
2018-May-26 06:59S 36°51' E 174°47'0 0.0
2018-May-26 06:25S 36°51' E 174°47'0 0.0
2018-May-26 05:28S 36°51' E 174°47'0 0.0
2018-May-26 04:59S 36°51' E 174°47'0 0.0
2018-May-26 04:23S 36°51' E 174°47'23 5.1
2018-May-25 23:57S 36°28' E 174°48'4 4.8
2018-May-25 23:04S 36°31' E 174°44'227.3
2018-May-25 23:00S 36°33' E 174°45'3 6.0
2018-May-25 22:28S 36°36' E 174°47'14 5.1
2018-May-25 19:41S 36°50' E 174°50'2 7.8
2018-May-25 19:27S 36°51' E 174°48'0 0.7
2018-May-25 19:00S 36°51' E 174°47'0 0.1
2018-May-25 18:26S 36°51' E 174°47'0 0.1
2018-May-25 18:00S 36°51' E 174°47'0 0.0
2018-May-25 17:30S 36°51' E 174°47'0 0.0
2018-May-25 17:00S 36°51' E 174°47'0 0.0
2018-May-25 16:30S 36°51' E 174°47'0 0.0
2018-May-25 15:55S 36°51' E 174°47'0 0.0
2018-May-25 15:27S 36°51' E 174°47'0 0.0
2018-May-25 14:58S 36°51' E 174°47'0 0.0
2018-May-25 14:31S 36°51' E 174°47'0 0.0
2018-May-25 13:59S 36°51' E 174°47'0 0.0
2018-May-25 13:26S 36°51' E 174°47'0 0.0
2018-May-25 12:58S 36°51' E 174°47'0 0.0
2018-May-25 12:27S 36°51' E 174°47'1 1.1
2018-May-25 11:04S 36°50' E 174°49'120.7
2018-May-25 11:00S 36°51' E 174°48'0 0.6
2018-May-25 10:28S 36°51' E 174°47'0 0.0
2018-May-25 10:00S 36°51' E 174°47'0 0.0
2018-May-25 09:24S 36°51' E 174°47'0 0.0
2018-May-25 09:00S 36°51' E 174°47'0 0.0
2018-May-25 08:29S 36°51' E 174°47'4 3.1
2018-May-25 07:21S 36°49' E 174°51'410.0
2018-May-25 07:00S 36°51' E 174°47'0 0.0
2018-May-25 06:30S 36°51' E 174°47'0 0.0
2018-May-25 05:58S 36°51' E 174°47'0 0.0
2018-May-25 05:24S 36°51' E 174°47'0 0.0
2018-May-25 05:00S 36°51' E 174°47'0 0.0
2018-May-25 04:26S 36°51' E 174°47'0 0.0
2018-May-25 03:59S 36°51' E 174°47'0 0.0
2018-May-25 03:26S 36°51' E 174°47'0 0.0
2018-May-25 03:00S 36°51' E 174°47'0 0.0
2018-May-25 02:30S 36°51' E 174°47'1 0.8
2018-May-25 00:48S 36°50' E 174°46'1 5.0
2018-May-25 00:30S 36°51' E 174°47'0 0.0
2018-May-24 23:58S 36°51' E 174°47'0 0.0
2018-May-24 23:29S 36°51' E 174°47'0 0.0
2018-May-24 22:59S 36°51' E 174°47'0 0.0
2018-May-24 22:30S 36°51' E 174°47'0 0.0
2018-May-24 22:00S 36°51' E 174°47'0 0.0
2018-May-24 21:30S 36°51' E 174°47'0 0.0
2018-May-24 21:00S 36°51' E 174°47'0 0.0
2018-May-24 20:28S 36°51' E 174°47'0 0.0
2018-May-24 19:59S 36°51' E 174°47'0 0.0
2018-May-24 19:25S 36°51' E 174°47'0 0.0
2018-May-24 19:00S 36°51' E 174°47'0 0.0
2018-May-24 18:30S 36°51' E 174°47'0 0.0
2018-May-24 17:55S 36°51' E 174°47'0 0.0
2018-May-24 17:28S 36°51' E 174°47'0 0.0
2018-May-24 16:58S 36°51' E 174°47'2 1.7
2018-May-24 15:44S 36°50' E 174°50'2 9.0
2018-May-24 15:30S 36°51' E 174°47'0 0.0
2018-May-24 14:59S 36°51' E 174°47'0 0.0
2018-May-24 14:30S 36°51' E 174°47'0 0.0
2018-May-24 13:59S 36°51' E 174°47'0 0.0
2018-May-24 13:30S 36°51' E 174°47'0 0.0
2018-May-24 08:59S 36°51' E 174°47'0 0.0
2018-May-24 08:29S 36°51' E 174°47'0 0.0
2018-May-24 08:00S 36°51' E 174°47'0 0.1
2018-May-24 07:30S 36°51' E 174°47'0 0.1
2018-May-24 06:58S 36°51' E 174°47'0 0.0
2018-May-24 06:29S 36°51' E 174°47'0 0.0
2018-May-24 06:01S 36°51' E 174°47'0 0.0
2018-May-24 05:30S 36°51' E 174°47'0 0.0
2018-May-24 05:00S 36°51' E 174°47'1 1.0
2018-May-24 04:30S 36°50' E 174°48'1 1.1
2018-May-24 03:30S 36°50' E 174°49'2 3.0
2018-May-24 03:00S 36°51' E 174°47'0 0.0
2018-May-24 02:30S 36°51' E 174°47'0 0.0
2018-May-24 01:59S 36°51' E 174°47'0 0.0
2018-May-24 01:30S 36°51' E 174°47'0 0.0
2018-May-24 01:00S 36°51' E 174°47'0 0.0
2018-May-24 00:30S 36°51' E 174°47'0 0.0
2018-May-24 00:00S 36°51' E 174°47'0 0.0
2018-May-23 23:30S 36°51' E 174°47'0 0.0
2018-May-23 23:00S 36°51' E 174°47'0 0.0
2018-May-23 22:30S 36°51' E 174°47'0 0.0
2018-May-23 22:00S 36°51' E 174°47'4 1.9
2018-May-23 19:55S 36°49' E 174°52'4 7.9
2018-May-23 19:25S 36°51' E 174°47'0 0.0
2018-May-23 19:00S 36°51' E 174°47'0 0.0
2018-May-23 18:29S 36°51' E 174°47'0 0.0
2018-May-23 17:56S 36°51' E 174°47'0 0.0
2018-May-23 17:30S 36°51' E 174°47'0 0.0
2018-May-23 17:00S 36°51' E 174°47'0 0.0
2018-May-23 16:30S 36°51' E 174°47'0 0.0
2018-May-23 15:59S 36°51' E 174°47'0 0.0
2018-May-23 15:30S 36°51' E 174°47'0 0.0
2018-May-23 15:01S 36°51' E 174°47'0 0.0
2018-May-23 14:28S 36°51' E 174°47'0 0.0
2018-May-23 14:00S 36°51' E 174°47'0 0.0
2018-May-23 13:30S 36°51' E 174°47'0 0.0
2018-May-23 12:52S 36°51' E 174°47'0 0.0
2018-May-23 12:28S 36°51' E 174°47'0 0.0
2018-May-23 12:00S 36°51' E 174°47'0 0.0
2018-May-23 11:30S 36°51' E 174°47'0 0.0
2018-May-23 10:53S 36°51' E 174°47'0 0.0
2018-May-23 10:29S 36°51' E 174°47'0 0.0
2018-May-23 10:00S 36°51' E 174°47'0 0.0
2018-May-23 09:30S 36°51' E 174°47'0 0.0
2018-May-23 08:57S 36°51' E 174°47'0 0.0
2018-May-23 08:30S 36°51' E 174°47'0 0.0
2018-May-23 07:58S 36°51' E 174°47'0 0.0
2018-May-23 07:28S 36°51' E 174°47'0 0.0
2018-May-23 07:00S 36°51' E 174°47'0 0.0
2018-May-23 06:30S 36°51' E 174°47'0 0.0
2018-May-23 05:59S 36°51' E 174°47'0 0.0
2018-May-23 05:30S 36°51' E 174°47'0 0.0
2018-May-23 04:59S 36°51' E 174°47'0 0.0
2018-May-23 04:30S 36°51' E 174°47'0 0.0
2018-May-23 03:58S 36°51' E 174°47'0 0.0
2018-May-23 03:29S 36°51' E 174°47'0 0.0
2018-May-23 03:00S 36°51' E 174°47'2 1.6
2018-May-23 01:39S 36°50' E 174°50'213.3
2018-May-23 01:29S 36°51' E 174°47'1 1.4
2018-May-23 00:29S 36°50' E 174°49'1 2.9
2018-May-22 23:58S 36°51' E 174°47'5 2.2
2018-May-22 21:38S 36°49' E 174°53'325.6
2018-May-22 21:30S 36°50' E 174°49'2 3.3
2018-May-22 21:00S 36°51' E 174°47'0 0.0
2018-May-22 20:30S 36°51' E 174°47'0 0.0
2018-May-22 20:00S 36°51' E 174°47'0 0.0
2018-May-22 19:30S 36°51' E 174°47'0 0.1
2018-May-22 18:58S 36°51' E 174°47'0 0.1
2018-May-22 18:30S 36°51' E 174°47'0 0.0
2018-May-22 18:00S 36°51' E 174°47'0 0.0
2018-May-22 17:30S 36°51' E 174°47'0 0.0
2018-May-22 16:54S 36°51' E 174°47'0 0.0
2018-May-22 16:30S 36°51' E 174°47'0 0.0
2018-May-22 15:58S 36°51' E 174°47'0 0.0
2018-May-22 15:30S 36°51' E 174°47'0 0.1
2018-May-22 15:00S 36°51' E 174°47'0 0.1
2018-May-22 14:31S 36°51' E 174°47'0 0.0
2018-May-22 14:00S 36°51' E 174°47'0 0.0
2018-May-22 13:30S 36°51' E 174°47'0 0.0
2018-May-22 13:00S 36°51' E 174°47'0 0.0
2018-May-22 12:30S 36°51' E 174°47'0 0.0
2018-May-22 11:58S 36°51' E 174°47'0 0.0
2018-May-22 11:30S 36°51' E 174°47'0 0.0
2018-May-22 10:52S 36°51' E 174°47'0 0.0
2018-May-22 10:28S 36°51' E 174°47'0 0.0
2018-May-22 10:00S 36°51' E 174°47'0 0.0
2018-May-22 09:27S 36°51' E 174°47'3 2.2
2018-May-22 08:05S 36°50' E 174°51'224.1
2018-May-22 08:00S 36°50' E 174°49'1 2.2
2018-May-22 07:29S 36°51' E 174°47'0 0.0
2018-May-22 06:59S 36°51' E 174°47'0 0.0
2018-May-22 06:30S 36°51' E 174°47'0 0.0
2018-May-22 06:00S 36°51' E 174°47'0 0.0
2018-May-22 05:30S 36°51' E 174°47'0 0.0
2018-May-22 05:00S 36°51' E 174°47'0 0.0
2018-May-22 04:30S 36°51' E 174°47'0 0.0
2018-May-22 04:00S 36°51' E 174°47'3 2.6
2018-May-22 02:47S 36°50' E 174°51'3 9.9
2018-May-22 02:28S 36°51' E 174°47'0 0.0
2018-May-22 02:00S 36°51' E 174°47'0 0.0
2018-May-22 01:28S 36°51' E 174°47'0 0.0
2018-May-22 01:00S 36°51' E 174°47'0 0.0
2018-May-22 00:28S 36°51' E 174°47'0 0.0
2018-May-22 00:00S 36°51' E 174°47'0 0.1
2018-May-21 23:29S 36°51' E 174°47'0 0.0
2018-May-21 21:49S 36°51' E 174°47'0 0.0
2018-May-21 21:30S 36°51' E 174°47'0 0.0
2018-May-21 21:00S 36°51' E 174°47'0 0.1
2018-May-21 20:29S 36°51' E 174°47'0 0.1
2018-May-21 19:58S 36°51' E 174°47'0 0.0
2018-May-21 19:29S 36°51' E 174°47'0 0.0
2018-May-21 19:00S 36°51' E 174°47'0 0.0
2018-May-21 18:29S 36°51' E 174°47'0 0.0
2018-May-21 17:58S 36°51' E 174°47'0 0.0
2018-May-21 17:29S 36°51' E 174°47'0 0.0
2018-May-21 17:00S 36°51' E 174°47'0 0.0
2018-May-21 16:29S 36°51' E 174°47'0 0.0
2018-May-21 15:58S 36°51' E 174°47'0 0.0
2018-May-21 15:27S 36°51' E 174°47'0 0.1
2018-May-21 14:59S 36°51' E 174°47'0 0.1
2018-May-21 14:27S 36°51' E 174°47'0 0.0
2018-May-21 14:00S 36°51' E 174°47'0 0.0
2018-May-21 13:27S 36°51' E 174°47'0 0.0
2018-May-21 11:27S 36°51' E 174°47'0 0.0
2018-May-21 10:58S 36°51' E 174°47'0 0.0
2018-May-21 10:29S 36°51' E 174°47'0 0.1
2018-May-21 09:58S 36°51' E 174°47'0 0.1
2018-May-21 09:29S 36°51' E 174°47'0 0.0
2018-May-21 09:00S 36°51' E 174°47'0 0.0
2018-May-21 08:29S 36°51' E 174°47'0 0.0
2018-May-21 07:59S 36°51' E 174°47'0 0.0
2018-May-21 07:29S 36°51' E 174°47'0 0.0
2018-May-21 06:59S 36°51' E 174°47'0 0.0
2018-May-21 06:28S 36°51' E 174°47'0 0.0
2018-May-21 06:00S 36°51' E 174°47'0 0.0
2018-May-21 05:30S 36°51' E 174°47'0 0.0
2018-May-21 04:58S 36°51' E 174°47'0 0.0
2018-May-21 04:30S 36°51' E 174°47'0 0.0
2018-May-21 03:59S 36°51' E 174°47'4 2.8
2018-May-21 02:41S 36°49' E 174°52'415.4
2018-May-21 02:26S 36°51' E 174°47'0 0.0
2018-May-21 01:58S 36°51' E 174°47'0 0.0
2018-May-21 01:29S 36°51' E 174°47'0 0.0
2018-May-21 01:00S 36°51' E 174°47'0 0.0
2018-May-21 00:30S 36°51' E 174°47'0 0.0
2018-May-21 00:00S 36°51' E 174°47'0 0.1
2018-May-20 23:30S 36°51' E 174°47'0 0.1
2018-May-20 23:00S 36°51' E 174°47'0 0.0
2018-May-20 22:30S 36°51' E 174°47'0 0.0
2018-May-20 21:58S 36°51' E 174°47'0 0.0
2018-May-20 21:28S 36°51' E 174°47'0 0.0
2018-May-20 21:00S 36°51' E 174°47'0 0.0
2018-May-20 20:29S 36°51' E 174°47'0 0.0
2018-May-20 20:00S 36°51' E 174°47'0 0.0
2018-May-20 19:30S 36°51' E 174°47'0 0.0
2018-May-20 19:00S 36°51' E 174°47'0 0.0
2018-May-20 18:29S 36°51' E 174°47'0 0.0
2018-May-20 18:00S 36°51' E 174°47'0 0.0
2018-May-20 17:30S 36°51' E 174°47'0 0.0
2018-May-20 16:54S 36°51' E 174°47'0 0.0
2018-May-20 16:27S 36°51' E 174°47'0 0.0
2018-May-20 15:59S 36°51' E 174°47'0 0.0
2018-May-20 15:30S 36°51' E 174°47'0 0.0
2018-May-20 15:00S 36°51' E 174°47'0 0.0
2018-May-20 14:30S 36°51' E 174°47'0 0.0
2018-May-20 14:01S 36°51' E 174°47'0 0.0
2018-May-20 13:30S 36°51' E 174°47'0 0.0
2018-May-20 13:00S 36°51' E 174°47'0 0.0
2018-May-20 12:29S 36°51' E 174°47'0 0.0
2018-May-20 12:00S 36°51' E 174°47'0 0.0
2018-May-20 11:28S 36°51' E 174°47'0 0.0
2018-May-20 11:00S 36°51' E 174°47'0 0.0
2018-May-20 10:29S 36°51' E 174°47'0 0.0
2018-May-20 10:00S 36°51' E 174°47'0 0.0
2018-May-20 09:30S 36°51' E 174°47'0 0.0
2018-May-20 08:59S 36°51' E 174°47'0 0.0
2018-May-20 08:30S 36°51' E 174°47'0 0.0
2018-May-20 08:00S 36°51' E 174°47'0 0.0
2018-May-20 07:30S 36°51' E 174°47'0 0.0
2018-May-20 06:58S 36°51' E 174°47'0 0.0
2018-May-20 06:30S 36°51' E 174°47'2 1.2
2018-May-20 05:17S 36°50' E 174°46'2 5.3
2018-May-20 05:00S 36°51' E 174°47'0 0.0
2018-May-20 04:29S 36°51' E 174°47'0 0.0
2018-May-20 03:57S 36°51' E 174°47'0 0.0
2018-May-20 03:24S 36°51' E 174°47'0 0.0
2018-May-20 02:56S 36°51' E 174°47'0 0.0
2018-May-20 02:29S 36°51' E 174°47'0 0.0
2018-May-20 02:00S 36°51' E 174°47'0 0.0
2018-May-20 01:30S 36°51' E 174°47'0 0.0
2018-May-20 00:59S 36°51' E 174°47'0 0.0
2018-May-20 00:30S 36°51' E 174°47'0 0.0
2018-May-19 23:59S 36°51' E 174°47'0 0.1
2018-May-19 23:30S 36°51' E 174°47'0 0.1
2018-May-19 22:59S 36°51' E 174°47'0 0.0
2018-May-19 22:30S 36°51' E 174°47'0 0.0
2018-May-19 21:59S 36°51' E 174°47'0 0.0
2018-May-19 21:30S 36°51' E 174°47'0 0.0
2018-May-19 20:53S 36°51' E 174°47'0 0.0
2018-May-19 20:27S 36°51' E 174°47'0 0.0
2018-May-19 19:56S 36°51' E 174°47'0 0.0
2018-May-19 19:28S 36°51' E 174°47'0 0.0
2018-May-19 19:00S 36°51' E 174°47'0 0.0
2018-May-19 18:30S 36°51' E 174°47'0 0.0
2018-May-19 17:59S 36°51' E 174°47'0 0.0
2018-May-19 17:29S 36°51' E 174°47'0 0.0
2018-May-19 16:56S 36°51' E 174°47'0 0.0
2018-May-19 16:26S 36°51' E 174°47'0 0.0
2018-May-19 15:56S 36°51' E 174°47'0 0.0
2018-May-19 15:26S 36°51' E 174°47'0 0.0
2018-May-19 14:59S 36°51' E 174°47'0 0.0
2018-May-19 14:30S 36°51' E 174°47'0 0.0
2018-May-19 14:00S 36°51' E 174°47'0 0.0
2018-May-19 13:30S 36°51' E 174°47'0 0.0
2018-May-19 13:00S 36°51' E 174°47'0 0.1
2018-May-19 12:30S 36°51' E 174°47'0 0.1
2018-May-19 12:00S 36°51' E 174°47'0 0.0
2018-May-19 11:28S 36°51' E 174°47'0 0.0
2018-May-19 10:58S 36°51' E 174°47'0 0.1
2018-May-19 10:30S 36°51' E 174°47'0 0.1
2018-May-19 09:59S 36°51' E 174°47'0 0.0
2018-May-19 09:30S 36°51' E 174°47'0 0.0
2018-May-19 08:58S 36°51' E 174°47'0 0.0
2018-May-19 08:30S 36°51' E 174°47'0 0.0
2018-May-19 07:58S 36°51' E 174°47'0 0.0
2018-May-19 07:29S 36°51' E 174°47'0 0.0
2018-May-19 06:59S 36°51' E 174°47'0 0.0
2018-May-19 06:29S 36°51' E 174°47'0 0.0
2018-May-19 05:58S 36°51' E 174°47'0 0.0
2018-May-19 05:29S 36°51' E 174°47'0 0.0
2018-May-19 04:59S 36°51' E 174°47'0 0.0
2018-May-19 04:30S 36°51' E 174°47'0 0.0
2018-May-19 03:59S 36°51' E 174°47'0 0.0
2018-May-19 03:30S 36°51' E 174°47'0 0.0
2018-May-19 03:00S 36°51' E 174°47'0 0.0
2018-May-19 02:30S 36°51' E 174°47'0 0.0
2018-May-19 02:00S 36°51' E 174°47'0 0.0
2018-May-19 01:30S 36°51' E 174°47'0 0.0
2018-May-19 00:56S 36°51' E 174°47'0 0.0
2018-May-19 00:28S 36°51' E 174°47'0 0.0
2018-May-19 00:00S 36°51' E 174°47'0 0.0
2018-May-18 23:28S 36°51' E 174°47'2 1.1
2018-May-18 22:05S 36°50' E 174°46'0 4.5
2018-May-18 21:59S 36°49' E 174°46'2 3.9
2018-May-18 21:30S 36°51' E 174°47'0 0.0
2018-May-18 20:58S 36°51' E 174°47'0 0.0
2018-May-18 20:29S 36°51' E 174°47'0 0.0
2018-May-18 19:59S 36°51' E 174°47'0 0.0
2018-May-18 19:30S 36°51' E 174°47'0 0.0
2018-May-18 19:00S 36°51' E 174°47'0 0.0
2018-May-18 18:30S 36°51' E 174°47'0 0.0
2018-May-18 17:58S 36°51' E 174°47'0 0.0
2018-May-18 17:31S 36°51' E 174°47'0 0.0
2018-May-18 16:57S 36°51' E 174°47'0 0.1
2018-May-18 16:28S 36°51' E 174°47'0 0.0
2018-May-18 15:57S 36°51' E 174°47'0 0.1
2018-May-18 15:30S 36°51' E 174°47'0 0.0
2018-May-18 14:59S 36°51' E 174°47'0 0.0
2018-May-18 14:30S 36°51' E 174°47'0 0.0
2018-May-18 14:00S 36°51' E 174°47'0 0.0
2018-May-18 13:29S 36°51' E 174°47'0 0.0
2018-May-18 12:57S 36°51' E 174°47'0 0.0
2018-May-18 12:30S 36°51' E 174°47'0 0.0
2018-May-18 11:58S 36°51' E 174°47'0 0.0
2018-May-18 11:30S 36°51' E 174°47'0 0.0
2018-May-18 11:00S 36°51' E 174°47'0 0.0
2018-May-18 10:27S 36°51' E 174°47'0 0.0
2018-May-18 09:56S 36°51' E 174°47'0 0.0
2018-May-18 09:30S 36°51' E 174°47'0 0.0
2018-May-18 08:59S 36°51' E 174°47'0 0.0
2018-May-18 08:30S 36°51' E 174°47'0 0.0
2018-May-18 08:00S 36°51' E 174°47'0 0.0
2018-May-18 07:30S 36°51' E 174°47'0 0.0
2018-May-18 07:01S 36°51' E 174°47'0 0.0
2018-May-18 06:30S 36°51' E 174°47'0 0.0
2018-May-18 05:58S 36°51' E 174°47'0 0.0
2018-May-18 05:29S 36°51' E 174°47'0 0.0
2018-May-18 04:59S 36°51' E 174°47'0 0.0
2018-May-18 04:30S 36°51' E 174°47'0 0.0
2018-May-18 03:57S 36°51' E 174°47'0 0.0
2018-May-18 03:31S 36°51' E 174°47'0 0.0
2018-May-18 02:58S 36°51' E 174°47'0 0.0
2018-May-18 02:30S 36°51' E 174°47'0 0.0
2018-May-18 02:00S 36°51' E 174°47'0 0.0
2018-May-18 01:29S 36°51' E 174°47'0 0.0
2018-May-18 00:59S 36°51' E 174°47'0 0.0
2018-May-18 00:27S 36°51' E 174°47'0 0.0
2018-May-18 00:00S 36°51' E 174°47'0 0.0
2018-May-17 23:28S 36°51' E 174°47'0 0.0
2018-May-17 23:00S 36°51' E 174°47'0 0.0
2018-May-17 22:30S 36°51' E 174°47'1 2.0
2018-May-17 22:00S 36°51' E 174°46'2 1.9
2018-May-17 21:07S 36°50' E 174°48'1 6.7
2018-May-17 21:00S 36°51' E 174°47'0 0.0
2018-May-17 20:30S 36°51' E 174°47'0 0.0
2018-May-17 19:59S 36°51' E 174°47'0 0.0
2018-May-17 19:29S 36°51' E 174°47'0 0.0
2018-May-17 19:00S 36°51' E 174°47'  
Track history (hours):
 
Tides and Currents Weather Stations Pressure Air Temp Water Temp Dewpoint Dewpoint Depression Visibility Wind Speed Wind Dir Waves Ship Positions

Deodar 111

Last reported at 2018-May-27 10:00 UTC. Time now 2018-May-27 10:01 UTC.
Position S 36°51' E 174°47'.

Length 18 m.

Type: Law enforcement. MMSI: 512000369.

Date/timePositionNaut miles runAvg speedWind from/ knotsBaromVisibWave heightAir tempDewpointWater temp
2018-May-27 10:00S 36°51' E 174°47'0 0.0
2018-May-27 09:29S 36°51' E 174°47'0 0.0
2018-May-27 08:55S 36°51' E 174°47'0 0.0
2018-May-27 08:30S 36°51' E 174°47'0 0.0
2018-May-27 08:00S 36°51' E 174°47'0 0.0
2018-May-27 07:29S 36°51' E 174°47'0 0.0
2018-May-27 06:59S 36°51' E 174°47'0 0.1
2018-May-27 06:27S 36°51' E 174°47'0 0.1
2018-May-27 06:00S 36°51' E 174°47'0 0.1
2018-May-27 03:08S 36°51' E 174°47'1 4.5
2018-May-27 02:59S 36°50' E 174°47'1 0.8
2018-May-27 01:32S 36°50' E 174°46'0 9.4
2018-May-27 01:30S 36°50' E 174°46'1 2.1
2018-May-27 01:00S 36°51' E 174°47'0 0.0
2018-May-27 00:28S 36°51' E 174°47'0 0.0
2018-May-26 23:59S 36°51' E 174°47'1 0.6
2018-May-26 21:39S 36°50' E 174°49'0 1.8
2018-May-26 21:29S 36°50' E 174°48'2 4.0
2018-May-26 20:56S 36°50' E 174°46'2 3.2
2018-May-26 20:26S 36°51' E 174°47'0 0.0
2018-May-26 19:59S 36°51' E 174°47'0 0.0
2018-May-26 19:28S 36°51' E 174°47'0 0.1
2018-May-26 19:00S 36°51' E 174°47'0 0.1
2018-May-26 18:30S 36°51' E 174°47'0 0.1
2018-May-26 17:59S 36°51' E 174°47'0 0.1
2018-May-26 17:30S 36°51' E 174°47'0 0.0
2018-May-26 17:01S 36°51' E 174°47'0 0.0
2018-May-26 16:28S 36°51' E 174°47'0 0.0
2018-May-26 15:59S 36°51' E 174°47'0 0.1
2018-May-26 15:30S 36°51' E 174°47'0 0.1
2018-May-26 15:00S 36°51' E 174°47'0 0.0
2018-May-26 14:29S 36°51' E 174°47'0 0.1
2018-May-26 14:00S 36°51' E 174°47'0 0.1
2018-May-26 13:30S 36°51' E 174°47'0 0.0
2018-May-26 13:00S 36°51' E 174°47'0 0.0
2018-May-26 12:29S 36°51' E 174°47'0 0.0
2018-May-26 11:58S 36°51' E 174°47'0 0.0
2018-May-26 11:30S 36°51' E 174°47'0 0.0
2018-May-26 11:00S 36°51' E 174°47'0 0.0
2018-May-26 10:25S 36°51' E 174°47'0 0.0
2018-May-26 09:58S 36°51' E 174°47'0 0.0
2018-May-26 09:29S 36°51' E 174°47'0 0.0
2018-May-26 08:59S 36°51' E 174°47'0 0.0
2018-May-26 08:30S 36°51' E 174°47'0 0.0
2018-May-26 08:00S 36°51' E 174°47'0 0.0
2018-May-26 07:30S 36°51' E 174°47'0 0.0
2018-May-26 06:59S 36°51' E 174°47'0 0.0
2018-May-26 06:25S 36°51' E 174°47'0 0.0
2018-May-26 05:28S 36°51' E 174°47'0 0.0
2018-May-26 04:59S 36°51' E 174°47'0 0.0
2018-May-26 04:23S 36°51' E 174°47'23 5.1
2018-May-25 23:57S 36°28' E 174°48'4 4.8
2018-May-25 23:04S 36°31' E 174°44'227.3
2018-May-25 23:00S 36°33' E 174°45'3 6.0
2018-May-25 22:28S 36°36' E 174°47'14 5.1
2018-May-25 19:41S 36°50' E 174°50'2 7.8
2018-May-25 19:27S 36°51' E 174°48'0 0.7
2018-May-25 19:00S 36°51' E 174°47'0 0.1
2018-May-25 18:26S 36°51' E 174°47'0 0.1
2018-May-25 18:00S 36°51' E 174°47'0 0.0
2018-May-25 17:30S 36°51' E 174°47'0 0.0
2018-May-25 17:00S 36°51' E 174°47'0 0.0
2018-May-25 16:30S 36°51' E 174°47'0 0.0
2018-May-25 15:55S 36°51' E 174°47'0 0.0
2018-May-25 15:27S 36°51' E 174°47'0 0.0
2018-May-25 14:58S 36°51' E 174°47'0 0.0
2018-May-25 14:31S 36°51' E 174°47'0 0.0
2018-May-25 13:59S 36°51' E 174°47'0 0.0
2018-May-25 13:26S 36°51' E 174°47'0 0.0
2018-May-25 12:58S 36°51' E 174°47'0 0.0
2018-May-25 12:27S 36°51' E 174°47'1 1.1
2018-May-25 11:04S 36°50' E 174°49'120.7
2018-May-25 11:00S 36°51' E 174°48'0 0.6
2018-May-25 10:28S 36°51' E 174°47'0 0.0
2018-May-25 10:00S 36°51' E 174°47'0 0.0
2018-May-25 09:24S 36°51' E 174°47'0 0.0
2018-May-25 09:00S 36°51' E 174°47'0 0.0
2018-May-25 08:29S 36°51' E 174°47'4 3.1
2018-May-25 07:21S 36°49' E 174°51'410.0
2018-May-25 07:00S 36°51' E 174°47'0 0.0
2018-May-25 06:30S 36°51' E 174°47'0 0.0
2018-May-25 05:58S 36°51' E 174°47'0 0.0
2018-May-25 05:24S 36°51' E 174°47'0 0.0
2018-May-25 05:00S 36°51' E 174°47'0 0.0
2018-May-25 04:26S 36°51' E 174°47'0 0.0
2018-May-25 03:59S 36°51' E 174°47'0 0.0
2018-May-25 03:26S 36°51' E 174°47'0 0.0
2018-May-25 03:00S 36°51' E 174°47'0 0.0
2018-May-25 02:30S 36°51' E 174°47'1 0.8
2018-May-25 00:48S 36°50' E 174°46'1 5.0
2018-May-25 00:30S 36°51' E 174°47'0 0.0
2018-May-24 23:58S 36°51' E 174°47'0 0.0
2018-May-24 23:29S 36°51' E 174°47'0 0.0
2018-May-24 22:59S 36°51' E 174°47'0 0.0
2018-May-24 22:30S 36°51' E 174°47'0 0.0
2018-May-24 22:00S 36°51' E 174°47'0 0.0
2018-May-24 21:30S 36°51' E 174°47'0 0.0
2018-May-24 21:00S 36°51' E 174°47'0 0.0
2018-May-24 20:28S 36°51' E 174°47'0 0.0
2018-May-24 19:59S 36°51' E 174°47'0 0.0
2018-May-24 19:25S 36°51' E 174°47'0 0.0
2018-May-24 19:00S 36°51' E 174°47'0 0.0
2018-May-24 18:30S 36°51' E 174°47'0 0.0
2018-May-24 17:55S 36°51' E 174°47'0 0.0
2018-May-24 17:28S 36°51' E 174°47'0 0.0
2018-May-24 16:58S 36°51' E 174°47'2 1.7
2018-May-24 15:44S 36°50' E 174°50'2 9.0
2018-May-24 15:30S 36°51' E 174°47'0 0.0
2018-May-24 14:59S 36°51' E 174°47'0 0.0
2018-May-24 14:30S 36°51' E 174°47'0 0.0
2018-May-24 13:59S 36°51' E 174°47'0 0.0
2018-May-24 13:30S 36°51' E 174°47'0 0.0
2018-May-24 08:59S 36°51' E 174°47'0 0.0
2018-May-24 08:29S 36°51' E 174°47'0 0.0
2018-May-24 08:00S 36°51' E 174°47'0 0.1
2018-May-24 07:30S 36°51' E 174°47'0 0.1
2018-May-24 06:58S 36°51' E 174°47'0 0.0
2018-May-24 06:29S 36°51' E 174°47'0 0.0
2018-May-24 06:01S 36°51' E 174°47'0 0.0
2018-May-24 05:30S 36°51' E 174°47'0 0.0
2018-May-24 05:00S 36°51' E 174°47'1 1.0
2018-May-24 04:30S 36°50' E 174°48'1 1.1
2018-May-24 03:30S 36°50' E 174°49'2 3.0
2018-May-24 03:00S 36°51' E 174°47'0 0.0
2018-May-24 02:30S 36°51' E 174°47'0 0.0
2018-May-24 01:59S 36°51' E 174°47'0 0.0
2018-May-24 01:30S 36°51' E 174°47'0 0.0
2018-May-24 01:00S 36°51' E 174°47'0 0.0
2018-May-24 00:30S 36°51' E 174°47'0 0.0
2018-May-24 00:00S 36°51' E 174°47'0 0.0
2018-May-23 23:30S 36°51' E 174°47'0 0.0
2018-May-23 23:00S 36°51' E 174°47'0 0.0
2018-May-23 22:30S 36°51' E 174°47'0 0.0
2018-May-23 22:00S 36°51' E 174°47'4 1.9
2018-May-23 19:55S 36°49' E 174°52'4 7.9
2018-May-23 19:25S 36°51' E 174°47'0 0.0
2018-May-23 19:00S 36°51' E 174°47'0 0.0
2018-May-23 18:29S 36°51' E 174°47'0 0.0
2018-May-23 17:56S 36°51' E 174°47'0 0.0
2018-May-23 17:30S 36°51' E 174°47'0 0.0
2018-May-23 17:00S 36°51' E 174°47'0 0.0
2018-May-23 16:30S 36°51' E 174°47'0 0.0
2018-May-23 15:59S 36°51' E 174°47'0 0.0
2018-May-23 15:30S 36°51' E 174°47'0 0.0
2018-May-23 15:01S 36°51' E 174°47'0 0.0
2018-May-23 14:28S 36°51' E 174°47'0 0.0
2018-May-23 14:00S 36°51' E 174°47'0 0.0
2018-May-23 13:30S 36°51' E 174°47'0 0.0
2018-May-23 12:52S 36°51' E 174°47'0 0.0
2018-May-23 12:28S 36°51' E 174°47'0 0.0
2018-May-23 12:00S 36°51' E 174°47'0 0.0
2018-May-23 11:30S 36°51' E 174°47'0 0.0
2018-May-23 10:53S 36°51' E 174°47'0 0.0
2018-May-23 10:29S 36°51' E 174°47'0 0.0
2018-May-23 10:00S 36°51' E 174°47'0 0.0
2018-May-23 09:30S 36°51' E 174°47'0 0.0
2018-May-23 08:57S 36°51' E 174°47'0 0.0
2018-May-23 08:30S 36°51' E 174°47'0 0.0
2018-May-23 07:58S 36°51' E 174°47'0 0.0
2018-May-23 07:28S 36°51' E 174°47'0 0.0
2018-May-23 07:00S 36°51' E 174°47'0 0.0
2018-May-23 06:30S 36°51' E 174°47'0 0.0
2018-May-23 05:59S 36°51' E 174°47'0 0.0
2018-May-23 05:30S 36°51' E 174°47'0 0.0
2018-May-23 04:59S 36°51' E 174°47'0 0.0
2018-May-23 04:30S 36°51' E 174°47'0 0.0
2018-May-23 03:58S 36°51' E 174°47'0 0.0
2018-May-23 03:29S 36°51' E 174°47'0 0.0
2018-May-23 03:00S 36°51' E 174°47'2 1.6
2018-May-23 01:39S 36°50' E 174°50'213.3
2018-May-23 01:29S 36°51' E 174°47'1 1.4
2018-May-23 00:29S 36°50' E 174°49'1 2.9
2018-May-22 23:58S 36°51' E 174°47'5 2.2
2018-May-22 21:38S 36°49' E 174°53'325.6
2018-May-22 21:30S 36°50' E 174°49'2 3.3
2018-May-22 21:00S 36°51' E 174°47'0 0.0
2018-May-22 20:30S 36°51' E 174°47'0 0.0
2018-May-22 20:00S 36°51' E 174°47'0 0.0
2018-May-22 19:30S 36°51' E 174°47'0 0.1
2018-May-22 18:58S 36°51' E 174°47'0 0.1
2018-May-22 18:30S 36°51' E 174°47'0 0.0
2018-May-22 18:00S 36°51' E 174°47'0 0.0
2018-May-22 17:30S 36°51' E 174°47'0 0.0
2018-May-22 16:54S 36°51' E 174°47'0 0.0
2018-May-22 16:30S 36°51' E 174°47'0 0.0
2018-May-22 15:58S 36°51' E 174°47'0 0.0
2018-May-22 15:30S 36°51' E 174°47'0 0.1
2018-May-22 15:00S 36°51' E 174°47'0 0.1
2018-May-22 14:31S 36°51' E 174°47'0 0.0
2018-May-22 14:00S 36°51' E 174°47'0 0.0
2018-May-22 13:30S 36°51' E 174°47'0 0.0
2018-May-22 13:00S 36°51' E 174°47'0 0.0
2018-May-22 12:30S 36°51' E 174°47'0 0.0
2018-May-22 11:58S 36°51' E 174°47'0 0.0
2018-May-22 11:30S 36°51' E 174°47'0 0.0
2018-May-22 10:52S 36°51' E 174°47'0 0.0
2018-May-22 10:28S 36°51' E 174°47'0 0.0
2018-May-22 10:00S 36°51' E 174°47'0 0.0
2018-May-22 09:27S 36°51' E 174°47'3 2.2
2018-May-22 08:05S 36°50' E 174°51'224.1
2018-May-22 08:00S 36°50' E 174°49'1 2.2
2018-May-22 07:29S 36°51' E 174°47'0 0.0
2018-May-22 06:59S 36°51' E 174°47'0 0.0
2018-May-22 06:30S 36°51' E 174°47'0 0.0
2018-May-22 06:00S 36°51' E 174°47'0 0.0
2018-May-22 05:30S 36°51' E 174°47'0 0.0
2018-May-22 05:00S 36°51' E 174°47'0 0.0
2018-May-22 04:30S 36°51' E 174°47'0 0.0
2018-May-22 04:00S 36°51' E 174°47'3 2.6
2018-May-22 02:47S 36°50' E 174°51'3 9.9
2018-May-22 02:28S 36°51' E 174°47'0 0.0
2018-May-22 02:00S 36°51' E 174°47'0 0.0
2018-May-22 01:28S 36°51' E 174°47'0 0.0
2018-May-22 01:00S 36°51' E 174°47'0 0.0
2018-May-22 00:28S 36°51' E 174°47'0 0.0
2018-May-22 00:00S 36°51' E 174°47'0 0.1
2018-May-21 23:29S 36°51' E 174°47'0 0.0
2018-May-21 21:49S 36°51' E 174°47'0 0.0
2018-May-21 21:30S 36°51' E 174°47'0 0.0
2018-May-21 21:00S 36°51' E 174°47'0 0.1
2018-May-21 20:29S 36°51' E 174°47'0 0.1
2018-May-21 19:58S 36°51' E 174°47'0 0.0
2018-May-21 19:29S 36°51' E 174°47'0 0.0
2018-May-21 19:00S 36°51' E 174°47'0 0.0
2018-May-21 18:29S 36°51' E 174°47'0 0.0
2018-May-21 17:58S 36°51' E 174°47'0 0.0
2018-May-21 17:29S 36°51' E 174°47'0 0.0
2018-May-21 17:00S 36°51' E 174°47'0 0.0
2018-May-21 16:29S 36°51' E 174°47'0 0.0
2018-May-21 15:58S 36°51' E 174°47'0 0.0
2018-May-21 15:27S 36°51' E 174°47'0 0.1
2018-May-21 14:59S 36°51' E 174°47'0 0.1
2018-May-21 14:27S 36°51' E 174°47'0 0.0
2018-May-21 14:00S 36°51' E 174°47'0 0.0
2018-May-21 13:27S 36°51' E 174°47'0 0.0
2018-May-21 11:27S 36°51' E 174°47'0 0.0
2018-May-21 10:58S 36°51' E 174°47'0 0.0
2018-May-21 10:29S 36°51' E 174°47'0 0.1
2018-May-21 09:58S 36°51' E 174°47'0 0.1
2018-May-21 09:29S 36°51' E 174°47'0 0.0
2018-May-21 09:00S 36°51' E 174°47'0 0.0
2018-May-21 08:29S 36°51' E 174°47'0 0.0
2018-May-21 07:59S 36°51' E 174°47'0 0.0
2018-May-21 07:29S 36°51' E 174°47'0 0.0
2018-May-21 06:59S 36°51' E 174°47'0 0.0
2018-May-21 06:28S 36°51' E 174°47'0 0.0
2018-May-21 06:00S 36°51' E 174°47'0 0.0
2018-May-21 05:30S 36°51' E 174°47'0 0.0
2018-May-21 04:58S 36°51' E 174°47'0 0.0
2018-May-21 04:30S 36°51' E 174°47'0 0.0
2018-May-21 03:59S 36°51' E 174°47'4 2.8
2018-May-21 02:41S 36°49' E 174°52'415.4
2018-May-21 02:26S 36°51' E 174°47'0 0.0
2018-May-21 01:58S 36°51' E 174°47'0 0.0
2018-May-21 01:29S 36°51' E 174°47'0 0.0
2018-May-21 01:00S 36°51' E 174°47'0 0.0
2018-May-21 00:30S 36°51' E 174°47'0 0.0
2018-May-21 00:00S 36°51' E 174°47'0 0.1
2018-May-20 23:30S 36°51' E 174°47'0 0.1
2018-May-20 23:00S 36°51' E 174°47'0 0.0
2018-May-20 22:30S 36°51' E 174°47'0 0.0
2018-May-20 21:58S 36°51' E 174°47'0 0.0
2018-May-20 21:28S 36°51' E 174°47'0 0.0
2018-May-20 21:00S 36°51' E 174°47'0 0.0
2018-May-20 20:29S 36°51' E 174°47'0 0.0
2018-May-20 20:00S 36°51' E 174°47'0 0.0
2018-May-20 19:30S 36°51' E 174°47'0 0.0
2018-May-20 19:00S 36°51' E 174°47'0 0.0
2018-May-20 18:29S 36°51' E 174°47'0 0.0
2018-May-20 18:00S 36°51' E 174°47'0 0.0
2018-May-20 17:30S 36°51' E 174°47'0 0.0
2018-May-20 16:54S 36°51' E 174°47'0 0.0
2018-May-20 16:27S 36°51' E 174°47'0 0.0
2018-May-20 15:59S 36°51' E 174°47'0 0.0
2018-May-20 15:30S 36°51' E 174°47'0 0.0
2018-May-20 15:00S 36°51' E 174°47'0 0.0
2018-May-20 14:30S 36°51' E 174°47'0 0.0
2018-May-20 14:01S 36°51' E 174°47'0 0.0
2018-May-20 13:30S 36°51' E 174°47'0 0.0
2018-May-20 13:00S 36°51' E 174°47'0 0.0
2018-May-20 12:29S 36°51' E 174°47'0 0.0
2018-May-20 12:00S 36°51' E 174°47'0 0.0
2018-May-20 11:28S 36°51' E 174°47'0 0.0
2018-May-20 11:00S 36°51' E 174°47'0 0.0
2018-May-20 10:29S 36°51' E 174°47'0 0.0
2018-May-20 10:00S 36°51' E 174°47'0 0.0
2018-May-20 09:30S 36°51' E 174°47'0 0.0
2018-May-20 08:59S 36°51' E 174°47'0 0.0
2018-May-20 08:30S 36°51' E 174°47'0 0.0
2018-May-20 08:00S 36°51' E 174°47'0 0.0
2018-May-20 07:30S 36°51' E 174°47'0 0.0
2018-May-20 06:58S 36°51' E 174°47'0 0.0
2018-May-20 06:30S 36°51' E 174°47'2 1.2
2018-May-20 05:17S 36°50' E 174°46'2 5.3
2018-May-20 05:00S 36°51' E 174°47'0 0.0
2018-May-20 04:29S 36°51' E 174°47'0 0.0
2018-May-20 03:57S 36°51' E 174°47'0 0.0
2018-May-20 03:24S 36°51' E 174°47'0 0.0
2018-May-20 02:56S 36°51' E 174°47'0 0.0
2018-May-20 02:29S 36°51' E 174°47'0 0.0
2018-May-20 02:00S 36°51' E 174°47'0 0.0
2018-May-20 01:30S 36°51' E 174°47'0 0.0
2018-May-20 00:59S 36°51' E 174°47'0 0.0
2018-May-20 00:30S 36°51' E 174°47'0 0.0
2018-May-19 23:59S 36°51' E 174°47'0 0.1
2018-May-19 23:30S 36°51' E 174°47'0 0.1
2018-May-19 22:59S 36°51' E 174°47'0 0.0
2018-May-19 22:30S 36°51' E 174°47'0 0.0
2018-May-19 21:59S 36°51' E 174°47'0 0.0
2018-May-19 21:30S 36°51' E 174°47'0 0.0
2018-May-19 20:53S 36°51' E 174°47'0 0.0
2018-May-19 20:27S 36°51' E 174°47'0 0.0
2018-May-19 19:56S 36°51' E 174°47'0 0.0
2018-May-19 19:28S 36°51' E 174°47'0 0.0
2018-May-19 19:00S 36°51' E 174°47'0 0.0
2018-May-19 18:30S 36°51' E 174°47'0 0.0
2018-May-19 17:59S 36°51' E 174°47'0 0.0
2018-May-19 17:29S 36°51' E 174°47'0 0.0
2018-May-19 16:56S 36°51' E 174°47'0 0.0
2018-May-19 16:26S 36°51' E 174°47'0 0.0
2018-May-19 15:56S 36°51' E 174°47'0 0.0
2018-May-19 15:26S 36°51' E 174°47'0 0.0
2018-May-19 14:59S 36°51' E 174°47'0 0.0
2018-May-19 14:30S 36°51' E 174°47'0 0.0
2018-May-19 14:00S 36°51' E 174°47'0 0.0
2018-May-19 13:30S 36°51' E 174°47'0 0.0
2018-May-19 13:00S 36°51' E 174°47'0 0.1
2018-May-19 12:30S 36°51' E 174°47'0 0.1
2018-May-19 12:00S 36°51' E 174°47'0 0.0
2018-May-19 11:28S 36°51' E 174°47'0 0.0
2018-May-19 10:58S 36°51' E 174°47'0 0.1
2018-May-19 10:30S 36°51' E 174°47'0 0.1
2018-May-19 09:59S 36°51' E 174°47'0 0.0
2018-May-19 09:30S 36°51' E 174°47'0 0.0
2018-May-19 08:58S 36°51' E 174°47'0 0.0
2018-May-19 08:30S 36°51' E 174°47'0 0.0
2018-May-19 07:58S 36°51' E 174°47'0 0.0
2018-May-19 07:29S 36°51' E 174°47'0 0.0
2018-May-19 06:59S 36°51' E 174°47'0 0.0
2018-May-19 06:29S 36°51' E 174°47'0 0.0
2018-May-19 05:58S 36°51' E 174°47'0 0.0
2018-May-19 05:29S 36°51' E 174°47'0 0.0
2018-May-19 04:59S 36°51' E 174°47'0 0.0
2018-May-19 04:30S 36°51' E 174°47'0 0.0
2018-May-19 03:59S 36°51' E 174°47'0 0.0
2018-May-19 03:30S 36°51' E 174°47'0 0.0
2018-May-19 03:00S 36°51' E 174°47'0 0.0
2018-May-19 02:30S 36°51' E 174°47'0 0.0
2018-May-19 02:00S 36°51' E 174°47'0 0.0
2018-May-19 01:30S 36°51' E 174°47'0 0.0
2018-May-19 00:56S 36°51' E 174°47'0 0.0
2018-May-19 00:28S 36°51' E 174°47'0 0.0
2018-May-19 00:00S 36°51' E 174°47'0 0.0
2018-May-18 23:28S 36°51' E 174°47'2 1.1
2018-May-18 22:05S 36°50' E 174°46'0 4.5
2018-May-18 21:59S 36°49' E 174°46'2 3.9
2018-May-18 21:30S 36°51' E 174°47'0 0.0
2018-May-18 20:58S 36°51' E 174°47'0 0.0
2018-May-18 20:29S 36°51' E 174°47'0 0.0
2018-May-18 19:59S 36°51' E 174°47'0 0.0
2018-May-18 19:30S 36°51' E 174°47'0 0.0
2018-May-18 19:00S 36°51' E 174°47'0 0.0
2018-May-18 18:30S 36°51' E 174°47'0 0.0
2018-May-18 17:58S 36°51' E 174°47'0 0.0
2018-May-18 17:31S 36°51' E 174°47'0 0.0
2018-May-18 16:57S 36°51' E 174°47'0 0.1
2018-May-18 16:28S 36°51' E 174°47'0 0.0
2018-May-18 15:57S 36°51' E 174°47'0 0.1
2018-May-18 15:30S 36°51' E 174°47'0 0.0
2018-May-18 14:59S 36°51' E 174°47'0 0.0
2018-May-18 14:30S 36°51' E 174°47'0 0.0
2018-May-18 14:00S 36°51' E 174°47'0 0.0
2018-May-18 13:29S 36°51' E 174°47'0 0.0
2018-May-18 12:57S 36°51' E 174°47'0 0.0
2018-May-18 12:30S 36°51' E 174°47'0 0.0
2018-May-18 11:58S 36°51' E 174°47'0 0.0
2018-May-18 11:30S 36°51' E 174°47'0 0.0
2018-May-18 11:00S 36°51' E 174°47'0 0.0
2018-May-18 10:27S 36°51' E 174°47'0 0.0
2018-May-18 09:56S 36°51' E 174°47'0 0.0
2018-May-18 09:30S 36°51' E 174°47'0 0.0
2018-May-18 08:59S 36°51' E 174°47'0 0.0
2018-May-18 08:30S 36°51' E 174°47'0 0.0
2018-May-18 08:00S 36°51' E 174°47'0 0.0
2018-May-18 07:30S 36°51' E 174°47'0 0.0
2018-May-18 07:01S 36°51' E 174°47'0 0.0
2018-May-18 06:30S 36°51' E 174°47'0 0.0
2018-May-18 05:58S 36°51' E 174°47'0 0.0
2018-May-18 05:29S 36°51' E 174°47'0 0.0
2018-May-18 04:59S 36°51' E 174°47'0 0.0
2018-May-18 04:30S 36°51' E 174°47'0 0.0
2018-May-18 03:57S 36°51' E 174°47'0 0.0
2018-May-18 03:31S 36°51' E 174°47'0 0.0
2018-May-18 02:58S 36°51' E 174°47'0 0.0
2018-May-18 02:30S 36°51' E 174°47'0 0.0
2018-May-18 02:00S 36°51' E 174°47'0 0.0
2018-May-18 01:29S 36°51' E 174°47'0 0.0
2018-May-18 00:59S 36°51' E 174°47'0 0.0
2018-May-18 00:27S 36°51' E 174°47'0 0.0
2018-May-18 00:00S 36°51' E 174°47'0 0.0
2018-May-17 23:28S 36°51' E 174°47'0 0.0
2018-May-17 23:00S 36°51' E 174°47'0 0.0
2018-May-17 22:30S 36°51' E 174°47'1 2.0
2018-May-17 22:00S 36°51' E 174°46'2 1.9
2018-May-17 21:07S 36°50' E 174°48'1 6.7
2018-May-17 21:00S 36°51' E 174°47'0 0.0
2018-May-17 20:30S 36°51' E 174°47'0 0.0
2018-May-17 19:59S 36°51' E 174°47'0 0.0
2018-May-17 19:29S 36°51' E 174°47'0 0.0
2018-May-17 19:00S 36°51' E 174°47'  

Dump ship's entire track history